Time;durP1;ratioP1;P1;durP2;ratioP2;P2;SDS_P1;SDS_P2;PMS_P1;PMS_P2;Temp;Humidity;BMP_temperature;BMP_pressure;BME280_temperature;BME280_humidity;BME280_pressure;Samples;Min_cycle;Max_cycle;Signal;HPM_P1;HPM_P2
2023/03/18 00:00:27;;;;;;;25.10;14.15;;;;;;;4.68;100.00;100382.94;5055009;28;20116;-70
2023/03/18 00:02:53;;;;;;;22.83;13.48;;;;;;;4.46;100.00;100402.19;5054831;28;20499;-69
2023/03/18 00:05:19;;;;;;;21.17;13.75;;;;;;;4.71;100.00;100461.00;5056194;28;20107;-70
2023/03/18 00:07:46;;;;;;;23.20;11.50;;;;;;;5.29;100.00;100483.81;5056404;28;20033;-70
2023/03/18 00:10:12;;;;;;;19.98;12.32;;;;;;;4.63;100.00;100443.38;5051144;28;20025;-70
2023/03/18 00:12:40;;;;;;;20.30;12.40;;;;;;;4.78;100.00;100453.47;5053210;28;20043;-70
2023/03/18 00:15:08;;;;;;;16.83;10.75;;;;;;;4.71;100.00;100431.66;5053176;28;20048;-71
2023/03/18 00:17:33;;;;;;;15.82;11.50;;;;;;;4.99;100.00;100415.72;5053120;28;20443;-71
2023/03/18 00:20:04;;;;;;;17.23;11.13;;;;;;;4.98;100.00;100409.03;5053248;28;20025;-70
2023/03/18 00:22:34;;;;;;;15.68;10.38;;;;;;;4.91;100.00;100429.16;5053023;28;20021;-70
2023/03/18 00:25:00;;;;;;;15.15;9.40;;;;;;;5.18;100.00;100388.88;5052873;28;20025;-70
2023/03/18 00:27:26;;;;;;;15.48;9.80;;;;;;;5.43;100.00;100402.34;5052808;28;20740;-70
2023/03/18 00:29:52;;;;;;;13.00;9.10;;;;;;;4.85;100.00;100309.09;5052611;28;20028;-70
2023/03/18 00:32:17;;;;;;;12.77;8.65;;;;;;;5.35;100.00;100351.09;5052725;28;20483;-70
2023/03/18 00:34:44;;;;;;;10.60;7.97;;;;;;;5.79;100.00;100302.22;5051976;28;20040;-70
2023/03/18 00:37:17;;;;;;;11.00;8.13;;;;;;;5.69;100.00;100264.44;5051171;28;20028;-69
2023/03/18 00:39:44;;;;;;;10.52;8.13;;;;;;;5.17;100.00;100142.78;5052366;28;20028;-70
2023/03/18 00:42:11;;;;;;;10.60;7.82;;;;;;;6.09;100.00;100172.59;5052764;28;20043;-70
2023/03/18 00:44:37;;;;;;;10.23;8.05;;;;;;;5.71;100.00;100069.41;5052275;28;20083;-70
2023/03/18 00:47:03;;;;;;;9.70;7.72;;;;;;;5.52;100.00;100031.72;5052237;28;20048;-70
2023/03/18 00:49:28;;;;;;;9.93;8.00;;;;;;;6.07;100.00;100069.16;5052702;28;20025;-70
2023/03/18 00:51:54;;;;;;;10.30;8.10;;;;;;;5.67;100.00;99979.50;5051126;28;20029;-70
2023/03/18 00:54:20;;;;;;;10.93;8.63;;;;;;;6.16;100.00;100037.13;5051553;28;20043;-70
2023/03/18 00:56:46;;;;;;;10.15;8.25;;;;;;;5.62;100.00;99961.06;5050672;28;20111;-70
2023/03/18 00:59:12;;;;;;;14.27;9.20;;;;;;;6.05;100.00;99994.31;5050765;28;20044;-70
2023/03/18 01:01:38;;;;;;;10.65;8.43;;;;;;;5.91;100.00;99931.38;5052381;28;20033;-70
2023/03/18 01:04:05;;;;;;;11.05;8.77;;;;;;;6.05;100.00;99959.84;5051011;28;20033;-70
2023/03/18 01:06:34;;;;;;;11.48;9.20;;;;;;;5.75;100.00;99942.44;5052149;28;20033;-69
2023/03/18 01:09:01;;;;;;;11.60;9.05;;;;;;;5.92;100.00;99972.59;5052028;28;20039;-68
2023/03/18 01:11:29;;;;;;;13.20;9.45;;;;;;;5.79;100.00;99976.88;5051977;28;20537;-69
2023/03/18 01:13:54;;;;;;;13.45;8.77;;;;;;;6.09;100.00;99973.25;5052373;28;20041;-69
2023/03/18 01:16:20;;;;;;;12.20;8.77;;;;;;;5.88;100.00;99928.88;5051667;28;20432;-70
2023/03/18 01:18:46;;;;;;;13.05;9.13;;;;;;;5.57;100.00;99903.94;5051611;28;20095;-69
2023/03/18 01:21:12;;;;;;;11.95;9.43;;;;;;;5.55;100.00;99976.22;5050569;28;20095;-69
2023/03/18 01:23:37;;;;;;;12.95;9.77;;;;;;;5.34;100.00;99936.06;5051800;28;20036;-69
2023/03/18 01:26:04;;;;;;;13.65;10.15;;;;;;;5.31;100.00;100006.66;5050392;28;20116;-69
2023/03/18 01:28:29;;;;;;;13.73;10.25;;;;;;;5.43;100.00;99986.44;5051719;28;20044;-70
2023/03/18 01:30:56;;;;;;;14.52;10.02;;;;;;;5.33;100.00;100020.09;5051815;28;20422;-69
2023/03/18 01:33:24;;;;;;;11.50;9.93;;;;;;;5.16;100.00;100005.91;5051590;28;20044;-69
2023/03/18 01:35:55;;;;;;;12.82;9.68;;;;;;;5.00;100.00;100018.59;5051004;28;20024;-70
2023/03/18 01:38:22;;;;;;;12.80;9.57;;;;;;;4.67;100.00;99968.41;5051108;28;20043;-69
2023/03/18 01:40:48;;;;;;;13.57;9.80;;;;;;;4.76;100.00;100043.88;5051393;28;20123;-69
2023/03/18 01:43:39;;;;;;;12.23;9.38;;;;;;;5.51;100.00;100108.19;5051310;28;20124;-69
2023/03/18 01:46:32;;;;;;;12.38;9.50;;;;;;;5.16;100.00;100090.72;5049774;28;20090;-69
2023/03/18 01:49:01;;;;;;;14.40;10.55;;;;;;;5.45;100.00;100093.13;5051171;28;20486;-69
2023/03/18 01:51:28;;;;;;;15.18;11.38;;;;;;;5.29;100.00;100070.50;5049782;28;20086;-69
2023/03/18 01:53:56;;;;;;;13.90;9.88;;;;;;;5.10;100.00;100047.94;5051194;28;20025;-69
2023/03/18 01:56:22;;;;;;;12.90;10.25;;;;;;;4.53;100.00;100031.38;5050636;28;20060;-69
2023/03/18 01:58:54;;;;;;;12.18;9.20;;;;;;;5.13;100.00;100118.47;5050647;28;20107;-69
2023/03/18 02:01:29;;;;;;;13.35;9.52;;;;;;;4.66;100.00;100082.50;5051490;28;20037;-69
2023/03/18 02:03:55;;;;;;;13.18;9.73;;;;;;;4.34;100.00;100075.03;5051296;28;20471;-70
2023/03/18 02:06:22;;;;;;;14.15;9.95;;;;;;;5.14;100.00;100138.63;5049615;28;20040;-69
2023/03/18 02:08:48;;;;;;;14.43;10.40;;;;;;;4.93;100.00;100151.25;5050923;28;20032;-70
2023/03/18 02:11:14;;;;;;;14.07;10.13;;;;;;;4.60;100.00;100153.84;5050661;28;20036;-70
2023/03/18 02:13:42;;;;;;;24.35;15.60;;;;;;;4.54;100.00;100123.66;5050548;28;20029;-70
2023/03/18 02:16:23;;;;;;;30.10;18.00;;;;;;;4.71;100.00;100167.28;5049292;28;20079;-70
2023/03/18 02:18:53;;;;;;;25.60;15.60;;;;;;;4.55;100.00;100167.28;5050883;28;20033;-69
2023/03/18 02:21:49;;;;;;;18.45;12.50;;;;;;;4.82;100.00;100208.38;5049405;28;20029;-70
2023/03/18 02:24:44;;;;;;;17.90;11.98;;;;;;;4.86;100.00;100211.72;5049473;28;20029;-70
2023/03/18 02:27:27;;;;;;;17.85;11.63;;;;;;;4.66;100.00;100219.28;5034332;28;20503;-69
2023/03/18 02:30:01;;;;;;;14.60;11.02;;;;;;;4.77;100.00;100221.81;5050366;28;20036;-70
2023/03/18 02:32:29;;;;;;;15.75;11.75;;;;;;;3.98;100.00;100178.97;5049903;28;20082;-69
2023/03/18 02:34:58;;;;;;;16.27;11.95;;;;;;;4.58;100.00;100231.03;5050593;28;20025;-69
2023/03/18 02:37:23;;;;;;;17.17;11.65;;;;;;;4.49;100.00;100200.00;5050429;28;20035;-70
2023/03/18 02:39:49;;;;;;;16.80;12.20;;;;;;;4.06;100.00;100204.19;5050401;28;20025;-69
2023/03/18 02:42:15;;;;;;;15.43;11.15;;;;;;;4.34;100.00;100241.94;5048758;28;20032;-69
2023/03/18 02:44:45;;;;;;;17.55;11.75;;;;;;;4.20;100.00;100236.03;5048965;28;20033;-71
2023/03/18 02:47:21;;;;;;;15.35;11.48;;;;;;;4.06;100.00;100192.41;5049278;28;20041;-69
2023/03/18 02:49:46;;;;;;;15.75;11.65;;;;;;;3.70;100.00;100174.75;5049764;28;20028;-68
2023/03/18 02:52:12;;;;;;;16.63;10.43;;;;;;;4.61;100.00;100281.41;5050330;28;20044;-69
2023/03/18 02:54:37;;;;;;;14.45;10.55;;;;;;;4.30;100.00;100250.31;5050260;28;20087;-70
2023/03/18 02:57:03;;;;;;;14.50;10.15;;;;;;;4.75;100.00;100306.59;5048452;28;20057;-70
2023/03/18 02:59:28;;;;;;;14.82;10.88;;;;;;;4.28;100.00;100248.63;5049613;28;20052;-70
2023/03/18 03:01:54;;;;;;;17.10;11.13;;;;;;;4.02;100.00;100247.75;5048713;28;20037;-70
2023/03/18 03:04:22;;;;;;;15.07;11.00;;;;;;;3.84;100.00;100265.28;5050548;28;20472;-70
2023/03/18 03:06:48;;;;;;;15.70;10.85;;;;;;;4.14;100.00;100311.50;5050272;28;20087;-70
2023/03/18 03:09:15;;;;;;;17.23;11.30;;;;;;;3.85;100.00;100297.13;5050238;28;20083;-72
2023/03/18 03:11:43;;;;;;;17.20;10.98;;;;;;;4.48;100.00;100349.34;5050465;28;20028;-70
2023/03/18 03:14:09;;;;;;;15.70;11.27;;;;;;;3.82;100.00;100309.72;5050392;28;20521;-70
2023/03/18 03:16:35;;;;;;;17.67;10.98;;;;;;;4.19;100.00;100372.75;5048568;28;20784;-70
2023/03/18 03:19:01;;;;;;;16.65;11.80;;;;;;;4.01;100.00;100324.03;5050676;28;20055;-70
2023/03/18 03:21:27;;;;;;;19.13;11.30;;;;;;;4.26;100.00;100363.50;5050346;28;20487;-70
2023/03/18 03:23:53;;;;;;;17.17;11.75;;;;;;;4.00;100.00;100334.94;5050353;28;20025;-70
2023/03/18 03:26:19;;;;;;;16.02;11.05;;;;;;;4.08;100.00;100381.06;5050266;28;20040;-70
2023/03/18 03:28:45;;;;;;;17.83;11.70;;;;;;;4.21;100.00;100381.13;5049842;28;20033;-70
2023/03/18 03:31:11;;;;;;;18.23;11.43;;;;;;;4.41;100.00;100353.53;5050235;28;20029;-69
2023/03/18 03:33:40;;;;;;;15.45;11.55;;;;;;;4.15;100.00;100345.88;5048241;28;20410;-70
2023/03/18 03:36:11;;;;;;;18.58;12.02;;;;;;;4.26;100.00;100386.16;5044283;28;20025;-70
2023/03/18 03:38:37;;;;;;;16.75;11.55;;;;;;;4.33;100.00;100415.56;5047490;28;20041;-70
2023/03/18 03:41:04;;;;;;;17.20;10.90;;;;;;;4.49;100.00;100437.44;5048566;28;20029;-70
2023/03/18 03:43:30;;;;;;;18.95;11.18;;;;;;;4.03;100.00;100368.47;5050121;28;20033;-70
2023/03/18 03:45:56;;;;;;;15.70;11.07;;;;;;;3.86;100.00;100381.81;5053703;28;20079;-69
2023/03/18 03:48:21;;;;;;;17.95;11.10;;;;;;;4.20;100.00;100421.34;5085540;28;20422;-70
2023/03/18 03:50:49;;;;;;;15.32;10.82;;;;;;;4.45;100.00;100423.16;5053991;28;20442;-70
2023/03/18 03:53:15;;;;;;;15.70;10.38;;;;;;;4.56;100.00;100376.19;5051620;28;20025;-70
2023/03/18 03:55:40;;;;;;;15.45;10.73;;;;;;;4.13;100.00;100379.41;5052098;28;20044;-70
2023/03/18 03:58:06;;;;;;;15.13;10.38;;;;;;;4.32;100.00;100383.66;5052106;28;20483;-70
2023/03/18 04:00:31;;;;;;;13.55;9.77;;;;;;;4.42;100.00;100337.56;5052135;28;20021;-70
2023/03/18 04:02:57;;;;;;;15.50;10.10;;;;;;;3.82;100.00;100304.69;5052170;28;20033;-70
2023/03/18 04:05:23;;;;;;;25.05;16.85;;;;;;;3.97;100.00;100355.88;5053226;28;20027;-70
2023/03/18 04:07:50;;;;;;;21.67;15.05;;;;;;;4.08;100.00;100378.56;5052250;28;20037;-71
2023/03/18 04:10:18;;;;;;;24.95;14.02;;;;;;;3.82;100.00;100365.88;5052727;28;20110;-70
2023/03/18 04:12:46;;;;;;;23.08;13.32;;;;;;;3.44;100.00;100388.25;5051890;28;20140;-70
2023/03/18 04:15:14;;;;;;;27.15;14.20;;;;;;;3.53;100.00;100370.72;5051663;28;20037;-70
2023/03/18 04:17:40;;;;;;;19.48;13.70;;;;;;;3.36;100.00;100384.84;5051312;28;20451;-70
2023/03/18 04:20:06;;;;;;;28.25;16.20;;;;;;;3.88;100.00;100426.22;5051632;28;20029;-70
2023/03/18 04:22:32;;;;;;;30.17;16.73;;;;;;;3.46;100.00;100436.84;5052646;28;20025;-70
2023/03/18 04:24:58;;;;;;;30.15;16.65;;;;;;;3.17;100.00;100428.19;5052570;28;20559;-69
2023/03/18 04:27:25;;;;;;;32.20;19.23;;;;;;;3.05;100.00;100468.25;5052650;28;20104;-70
2023/03/18 04:29:51;;;;;;;33.30;18.90;;;;;;;2.68;100.00;100486.25;5051463;28;20124;-70
2023/03/18 04:32:16;;;;;;;29.90;16.60;;;;;;;2.80;100.00;100440.38;5051745;28;20121;-70
2023/03/18 04:34:42;;;;;;;22.00;12.73;;;;;;;2.53;100.00;100448.47;5052646;28;20025;-69
2023/03/18 04:37:08;;;;;;;18.42;10.88;;;;;;;2.60;100.00;100470.28;5051285;28;20032;-69
2023/03/18 04:39:34;;;;;;;14.43;10.45;;;;;;;2.44;100.00;100491.81;5052611;28;20115;-69
2023/03/18 04:41:59;;;;;;;13.55;10.55;;;;;;;2.76;100.00;100554.97;5051041;28;20047;-69
2023/03/18 04:44:25;;;;;;;15.57;10.43;;;;;;;2.69;100.00;100557.38;5050859;28;20127;-70
2023/03/18 04:46:52;;;;;;;20.15;14.40;;;;;;;2.39;100.00;100551.13;5050854;28;20491;-71
2023/03/18 04:49:18;;;;;;;34.03;22.50;;;;;;;1.98;100.00;100498.69;5052870;28;20029;-70
2023/03/18 04:51:45;;;;;;;36.53;22.00;;;;;;;2.75;100.00;100593.44;5052298;28;20115;-71
2023/03/18 04:54:11;;;;;;;38.90;25.95;;;;;;;2.90;100.00;100607.84;5052236;28;20060;-70
2023/03/18 04:56:38;;;;;;;51.22;29.70;;;;;;;3.75;100.00;100560.22;5052244;28;20106;-70
2023/03/18 04:59:04;;;;;;;34.38;22.35;;;;;;;3.44;100.00;100493.78;5047203;28;20033;-70
2023/03/18 05:01:29;;;;;;;36.47;23.77;;;;;;;3.32;100.00;100503.72;5035665;28;20036;-71
2023/03/18 05:03:55;;;;;;;30.25;20.35;;;;;;;3.24;100.00;100506.97;5032377;28;20025;-70
2023/03/18 05:06:25;;;;;;;25.58;19.05;;;;;;;3.01;100.00;100510.91;5030589;28;20040;-70
2023/03/18 05:08:52;;;;;;;25.92;17.25;;;;;;;3.37;100.00;100527.19;5032569;28;20053;-70
2023/03/18 05:11:19;;;;;;;22.35;15.05;;;;;;;2.59;100.00;100476.94;5032583;28;20116;-71
2023/03/18 05:13:45;;;;;;;24.40;16.45;;;;;;;3.37;100.00;100546.44;5031385;28;20120;-71
2023/03/18 05:16:11;;;;;;;66.30;38.72;;;;;;;3.71;100.00;100553.47;5032366;28;20053;-72
2023/03/18 05:18:37;;;;;;;53.28;29.13;;;;;;;3.96;100.00;100539.44;5032673;28;20068;-72
2023/03/18 05:21:06;;;;;;;31.00;19.70;;;;;;;3.81;100.00;100489.03;5032140;28;20037;-71
2023/03/18 05:23:32;;;;;;;33.83;19.63;;;;;;;4.00;100.00;100526.06;5032283;28;20120;-71
2023/03/18 05:25:58;;;;;;;27.77;16.80;;;;;;;4.47;100.00;100454.22;5030394;28;20422;-70
2023/03/18 05:28:23;;;;;;;22.65;14.80;;;;;;;4.84;100.00;100445.94;5030951;28;20116;-70
2023/03/18 05:30:49;;;;;;;18.73;13.60;;;;;;;4.73;100.00;100367.03;5031964;28;20405;-70
2023/03/18 05:33:14;;;;;;;24.63;16.73;;;;;;;4.87;100.00;100325.03;5029736;28;20034;-70
2023/03/18 05:35:40;;;;;;;41.47;24.10;;;;;;;5.17;100.00;100296.47;5029965;28;20504;-70
2023/03/18 05:38:06;;;;;;;36.85;23.50;;;;;;;5.18;100.00;100220.06;5047547;28;20025;-70
2023/03/18 05:40:32;;;;;;;37.03;23.55;;;;;;;5.13;100.00;100141.97;5051415;28;20031;-70
2023/03/18 05:42:58;;;;;;;33.75;24.63;;;;;;;6.00;100.00;100163.38;5049887;28;20037;-70
2023/03/18 05:45:24;;;;;;;34.63;23.25;;;;;;;6.11;100.00;100073.31;5049794;28;20047;-70
2023/03/18 05:47:49;;;;;;;34.55;22.58;;;;;;;6.44;100.00;100021.66;5049906;28;20116;-69
2023/03/18 05:50:32;;;;;;;37.10;24.83;;;;;;;6.49;100.00;99973.66;5049390;28;20283;-70
2023/03/18 05:52:57;;;;;;;59.25;34.50;;;;;;;6.38;100.00;99850.06;5051779;28;20063;-71
2023/03/18 05:55:23;;;;;;;109.82;55.33;;;;;;;6.58;100.00;99886.00;5051400;28;20123;-71
2023/03/18 05:57:48;;;;;;;132.77;67.00;;;;;;;5.89;100.00;99924.69;5083190;28;20103;-71
2023/03/18 06:00:14;;;;;;;115.90;55.78;;;;;;;5.59;100.00;99899.72;5051306;28;20442;-71
2023/03/18 06:02:40;;;;;;;70.13;38.72;;;;;;;5.25;100.00;99910.09;5051057;28;20472;-71
2023/03/18 06:05:06;;;;;;;53.95;37.78;;;;;;;5.09;100.00;99993.38;5051018;28;20037;-71
2023/03/18 06:07:32;;;;;;;36.45;20.48;;;;;;;4.51;100.00;100038.09;5050663;28;20040;-71
2023/03/18 06:09:57;;;;;;;26.85;18.48;;;;;;;4.36;100.00;100113.59;5050591;28;20111;-71
2023/03/18 06:12:26;;;;;;;22.90;18.17;;;;;;;4.12;100.00;100101.88;5050269;28;20513;-71
2023/03/18 06:14:52;;;;;;;24.10;18.70;;;;;;;4.18;100.00;100126.22;5051339;28;20052;-71
2023/03/18 06:17:18;;;;;;;95.10;55.22;;;;;;;4.39;100.00;100236.91;5051148;28;20086;-71
2023/03/18 06:19:44;;;;;;;148.88;85.25;;;;;;;4.26;100.00;100255.31;5049745;28;20090;-71
2023/03/18 06:22:10;;;;;;;73.32;49.50;;;;;;;4.15;100.00;100242.75;5051040;28;20495;-71
2023/03/18 06:24:35;;;;;;;85.20;59.88;;;;;;;4.48;100.00;100334.25;5049887;28;20052;-72
2023/03/18 06:27:01;;;;;;;60.58;45.03;;;;;;;4.38;100.00;100285.56;5049324;28;20064;-71
2023/03/18 06:29:26;;;;;;;42.13;27.30;;;;;;;4.28;100.00;100349.25;5050772;28;20033;-72
2023/03/18 06:31:52;;;;;;;34.90;23.25;;;;;;;4.19;100.00;100334.16;5051361;28;20029;-71
2023/03/18 06:34:18;;;;;;;31.17;23.20;;;;;;;4.10;100.00;100380.22;5050710;28;20024;-71
2023/03/18 06:36:43;;;;;;;20.55;14.73;;;;;;;3.84;100.00;100411.13;5051038;28;20044;-71
2023/03/18 06:39:09;;;;;;;22.58;14.15;;;;;;;4.04;100.00;100438.03;5051004;28;20032;-71
2023/03/18 06:41:35;;;;;;;17.73;13.93;;;;;;;4.58;100.00;100499.53;5049580;28;20029;-71
2023/03/18 06:44:00;;;;;;;19.55;11.63;;;;;;;4.21;100.00;100450.72;5049459;28;20472;-71
2023/03/18 06:46:26;;;;;;;22.90;15.00;;;;;;;4.47;100.00;100464.28;5048974;28;20111;-71
2023/03/18 06:48:53;;;;;;;21.30;13.75;;;;;;;5.27;100.00;100500.59;5048816;28;20033;-71
2023/03/18 06:51:18;;;;;;;24.73;14.85;;;;;;;5.14;100.00;100430.03;5050889;28;20025;-70
2023/03/18 06:53:44;;;;;;;18.13;13.52;;;;;;;5.23;100.00;100465.31;5049489;28;20118;-71
2023/03/18 06:56:12;;;;;;;19.33;14.80;;;;;;;5.20;100.00;100467.84;5050049;28;20036;-73
2023/03/18 06:58:38;;;;;;;21.48;15.32;;;;;;;5.19;100.00;100416.59;5050648;28;20045;-71
2023/03/18 07:01:04;;;;;;;18.30;13.32;;;;;;;5.59;100.00;100464.50;5047882;28;20517;-71
2023/03/18 07:03:29;;;;;;;26.85;19.33;;;;;;;5.17;100.00;100400.63;5046737;28;20029;-71
2023/03/18 07:05:55;;;;;;;22.02;17.17;;;;;;;5.94;100.00;100356.88;5049791;28;20029;-70
2023/03/18 07:08:20;;;;;;;21.48;16.92;;;;;;;6.25;100.00;100313.00;5050280;28;20025;-70
2023/03/18 07:10:46;;;;;;;26.55;17.77;;;;;;;6.14;100.00;100252.47;5050543;28;20112;-70
2023/03/18 07:13:12;;;;;;;23.92;17.25;;;;;;;6.40;100.00;100206.84;5049337;28;20380;-71
2023/03/18 07:15:37;;;;;;;30.00;22.20;;;;;;;6.83;100.00;100203.13;5050294;28;20507;-71
2023/03/18 07:18:03;;;;;;;33.80;25.15;;;;;;;6.71;100.00;100028.13;5051432;28;20029;-71
2023/03/18 07:20:29;;;;;;;29.10;19.98;;;;;;;7.69;100.00;100046.97;5054473;28;20028;-71
2023/03/18 07:22:55;;;;;;;23.10;15.85;;;;;;;7.80;100.00;99975.09;5054181;28;20021;-71
2023/03/18 07:25:21;;;;;;;20.02;15.10;;;;;;;7.80;100.00;99964.16;5054368;28;20028;-70
2023/03/18 07:27:46;;;;;;;23.00;14.65;;;;;;;7.79;100.00;99970.06;5055750;28;20044;-70
2023/03/18 07:30:12;;;;;;;23.33;16.08;;;;;;;8.23;100.00;99924.56;5058013;28;20059;-71
2023/03/18 07:32:38;;;;;;;22.98;15.52;;;;;;;7.73;100.00;99844.50;5055336;28;20118;-71
2023/03/18 07:35:04;;;;;;;25.23;17.27;;;;;;;7.33;100.00;99843.56;5053988;28;20060;-70
2023/03/18 07:37:31;;;;;;;36.70;23.00;;;;;;;7.80;100.00;99855.38;5079503;28;20028;-70
2023/03/18 07:39:56;;;;;;;28.52;19.52;;;;;;;7.64;100.00;99827.00;5051862;28;20167;-70
2023/03/18 07:42:22;;;;;;;21.08;13.80;;;;;;;7.71;100.00;99863.94;5034440;28;20116;-70
2023/03/18 07:44:48;;;;;;;20.60;14.68;;;;;;;7.69;100.00;99817.59;5032547;28;20403;-71
2023/03/18 07:47:14;;;;;;;18.33;14.35;;;;;;;8.02;100.00;99822.88;5032026;28;20029;-70
2023/03/18 07:49:40;;;;;;;25.42;13.32;;;;;;;8.16;100.00;99861.41;5032172;28;20391;-70
2023/03/18 07:52:07;;;;;;;21.60;14.57;;;;;;;7.96;100.00;99813.72;5037655;28;20088;-71
2023/03/18 07:54:33;;;;;;;20.58;10.50;;;;;;;7.74;100.00;99751.75;5053493;28;20036;-71
2023/03/18 07:56:58;;;;;;;17.00;9.93;;;;;;;8.56;100.00;99783.72;5051653;28;20044;-70
2023/03/18 07:59:24;;;;;;;10.10;7.90;;;;;;;7.99;100.00;99689.63;5052960;28;20458;-70
2023/03/18 08:01:49;;;;;;;15.27;8.60;;;;;;;8.43;100.00;99686.09;5051249;28;20040;-70
2023/03/18 08:04:15;;;;;;;11.88;8.45;;;;;;;8.45;100.00;99671.69;5052952;28;20029;-70
2023/03/18 08:06:41;;;;;;;9.95;6.82;;;;;;;8.60;100.00;99659.47;5041799;28;20029;-70
2023/03/18 08:09:07;;;;;;;11.23;8.00;;;;;;;8.38;100.00;99563.78;5031402;28;20603;-69
2023/03/18 08:11:33;;;;;;;18.55;10.60;;;;;;;8.46;100.00;99523.91;5032096;28;20029;-70
2023/03/18 08:13:59;;;;;;;9.95;7.43;;;;;;;8.46;100.00;99524.75;5031364;28;20488;-70
2023/03/18 08:16:25;;;;;;;12.43;7.45;;;;;;;8.40;100.00;99508.88;5032285;28;20086;-70
2023/03/18 08:18:51;;;;;;;10.90;7.35;;;;;;;8.75;100.00;99513.81;5032967;28;20496;-69
2023/03/18 08:21:17;;;;;;;13.73;7.70;;;;;;;8.80;100.00;99485.81;5031215;28;20061;-70
2023/03/18 08:23:43;;;;;;;15.98;8.70;;;;;;;9.07;100.00;99525.56;5032599;28;20068;-70
2023/03/18 08:26:09;;;;;;;10.27;5.70;;;;;;;8.73;100.00;99473.31;5030946;28;20037;-70
2023/03/18 08:28:35;;;;;;;20.98;10.60;;;;;;;8.44;100.00;99480.91;5032709;28;20025;-70
2023/03/18 08:31:02;;;;;;;12.50;6.45;;;;;;;8.86;100.00;99513.50;5031756;28;20033;-70
2023/03/18 08:33:28;;;;;;;10.88;6.40;;;;;;;8.77;100.00;99480.84;5032675;28;20026;-70
2023/03/18 08:35:54;;;;;;;6.32;2.88;;;;;;;8.99;100.00;99461.59;5031265;28;20038;-70
2023/03/18 08:38:22;;;;;;;4.95;2.38;;;;;;;9.16;100.00;99454.28;5032539;28;20091;-70
2023/03/18 08:40:47;;;;;;;3.97;2.10;;;;;;;9.17;100.00;99450.91;5032366;28;20021;-69
2023/03/18 08:43:13;;;;;;;6.30;2.60;;;;;;;8.85;100.00;99448.50;5040735;28;20563;-70
2023/03/18 08:45:38;;;;;;;4.70;1.90;;;;;;;8.75;97.33;99435.28;5052174;28;20037;-70
2023/03/18 08:48:04;;;;;;;5.30;2.72;;;;;;;8.88;96.54;99443.31;5052421;28;20025;-70
2023/03/18 08:50:30;;;;;;;4.32;2.50;;;;;;;9.08;93.33;99507.78;5052131;28;20025;-70
2023/03/18 08:52:57;;;;;;;3.85;2.00;;;;;;;8.89;91.04;99526.09;5051508;28;20033;-70
2023/03/18 08:55:32;;;;;;;9.90;3.10;;;;;;;8.74;90.59;99484.28;5052147;28;20108;-70
2023/03/18 08:57:59;;;;;;;8.52;3.08;;;;;;;8.80;93.53;99465.53;5051713;28;20057;-72
2023/03/18 09:00:24;;;;;;;7.00;3.05;;;;;;;9.20;93.90;99517.56;5033003;28;20037;-70
2023/03/18 09:02:51;;;;;;;3.53;1.98;;;;;;;8.96;89.73;99552.94;5030854;28;20592;-70
2023/03/18 09:05:17;;;;;;;4.20;2.00;;;;;;;9.14;89.65;99552.41;5032108;28;20467;-70
2023/03/18 09:07:44;;;;;;;4.85;3.08;;;;;;;9.74;100.00;99450.75;5030506;28;20033;-67
2023/03/18 09:10:11;;;;;;;5.10;2.10;;;;;;;8.88;92.83;99473.75;5045768;28;20029;-70
2023/03/18 09:12:38;;;;;;;4.47;2.20;;;;;;;9.01;89.88;99487.72;5050326;28;20483;-70
2023/03/18 09:15:04;;;;;;;6.65;2.33;;;;;;;9.37;88.42;99550.00;5050398;28;20507;-70
2023/03/18 09:17:30;;;;;;;5.78;2.50;;;;;;;9.14;88.85;99516.91;5051235;28;20028;-71
2023/03/18 09:19:56;;;;;;;4.97;2.30;;;;;;;9.22;88.12;99497.22;5048352;28;20036;-71
2023/03/18 09:22:22;;;;;;;6.00;3.10;;;;;;;9.56;87.56;99562.13;5045584;28;20033;-69
2023/03/18 09:24:48;;;;;;;6.05;3.20;;;;;;;9.63;86.49;99517.06;5044268;28;20550;-71
2023/03/18 09:27:13;;;;;;;5.78;3.10;;;;;;;9.59;86.77;99538.34;5050410;28;20112;-70
2023/03/18 09:29:48;;;;;;;4.65;2.47;;;;;;;9.73;85.17;99566.66;5051684;28;20027;-70
2023/03/18 09:32:15;;;;;;;4.70;2.60;;;;;;;9.53;83.78;99582.50;5051795;28;20029;-71
2023/03/18 09:34:40;;;;;;;6.47;2.33;;;;;;;9.87;84.10;99587.38;5051536;28;20032;-69
2023/03/18 09:37:06;;;;;;;5.78;2.88;;;;;;;10.06;84.70;99541.91;5051623;28;20040;-71
2023/03/18 09:39:33;;;;;;;6.47;2.45;;;;;;;9.90;82.80;99622.81;5049007;28;20048;-70
2023/03/18 09:42:27;;;;;;;6.97;3.35;;;;;;;9.93;80.83;99630.31;5030140;28;20037;-71
2023/03/18 09:45:09;;;;;;;6.25;2.92;;;;;;;9.61;77.59;99602.56;5031255;28;20508;-70
2023/03/18 09:47:43;;;;;;;;;;;;;;;10.00;77.87;99657.19;5060086;28;20539;-69
2023/03/18 09:50:20;;;;;;;5.43;3.00;;;;;;;10.28;77.13;99658.00;5031431;28;19913;-69
2023/03/18 09:52:55;;;;;;;6.20;3.20;;;;;;;10.12;75.63;99671.25;5031029;28;20037;-69
2023/03/18 09:55:38;;;;;;;4.85;2.63;;;;;;;10.08;74.07;99697.59;5030769;28;20574;-70
2023/03/18 09:58:15;;;;;;;6.60;3.38;;;;;;;10.18;73.33;99709.97;5029854;28;20064;-70
2023/03/18 10:00:41;;;;;;;7.78;3.13;;;;;;;9.96;71.57;99644.66;5031186;28;20030;-70
2023/03/18 10:03:20;;;;;;;5.55;2.80;;;;;;;9.96;71.05;99741.13;5031231;28;20038;-70
2023/03/18 10:05:53;;;;;;;5.78;2.97;;;;;;;10.25;72.56;99757.19;5030824;28;20526;-70
2023/03/18 10:08:24;;;;;;;5.68;3.10;;;;;;;10.37;72.08;99764.44;5029477;28;20025;-70
2023/03/18 10:10:49;;;;;;;5.43;2.80;;;;;;;10.49;70.67;99758.16;5031761;28;20025;-71
2023/03/18 10:13:31;;;;;;;5.10;2.90;;;;;;;11.04;70.75;99787.72;5049260;28;20043;-70
2023/03/18 10:16:01;;;;;;;;;;;;;;;11.00;72.26;99812.44;5046165;28;20094;-70
2023/03/18 10:18:33;;;;;;;5.18;2.70;;;;;;;10.88;69.12;99837.41;5036675;28;20382;-69
2023/03/18 10:21:35;;;;;;;4.13;2.63;;;;;;;11.17;68.60;99863.59;5047118;28;20094;-71
2023/03/18 10:24:13;;;;;;;;;;;;;;;10.97;69.00;99871.00;5051534;28;20029;-70
2023/03/18 10:26:56;;;;;;;6.25;2.75;;;;;;;10.77;69.43;99857.28;5049027;28;19913;-71
2023/03/18 10:29:39;;;;;;;4.50;2.70;;;;;;;10.99;68.40;99883.72;5050863;28;20158;-71
2023/03/18 10:32:10;;;;;;;5.75;2.60;;;;;;;11.26;64.06;99979.53;5050896;28;20029;-70
2023/03/18 10:35:00;;;;;;;3.80;2.25;;;;;;;11.87;67.66;99963.97;5050601;28;20032;-71
2023/03/18 10:37:50;;;;;;;6.03;2.72;;;;;;;12.16;64.21;99994.38;5036632;28;20208;-71
2023/03/18 10:40:18;;;;;;;5.25;2.47;;;;;;;12.06;63.99;100064.38;5048935;28;20029;-72
2023/03/18 10:42:45;;;;;;;4.57;2.60;;;;;;;12.61;61.52;100034.47;5049097;28;20055;-72
2023/03/18 10:45:13;;;;;;;5.38;2.58;;;;;;;12.05;59.95;100144.28;5049214;28;20053;-71
2023/03/18 10:47:44;;;;;;;4.20;2.80;;;;;;;12.15;59.89;100114.22;5045863;28;20029;-71
2023/03/18 10:50:20;;;;;;;6.03;2.97;;;;;;;12.81;59.30;100160.47;5049819;28;20115;-71
2023/03/18 10:52:57;;;;;;;6.47;3.25;;;;;;;13.33;57.74;100273.56;5045136;28;20068;-71
2023/03/18 10:55:49;;;;;;;4.57;2.83;;;;;;;12.90;59.55;100295.38;5051072;28;20177;-71
2023/03/18 10:58:18;;;;;;;6.90;3.00;;;;;;;12.35;57.25;100389.78;5049942;28;20047;-71
2023/03/18 11:00:43;;;;;;;5.78;2.88;;;;;;;12.98;54.77;100423.56;5045259;28;20499;-70
2023/03/18 11:03:31;;;;;;;4.28;2.72;;;;;;;13.72;56.56;100390.53;5048477;28;20141;-70
2023/03/18 11:06:03;;;;;;;7.68;3.33;;;;;;;13.29;52.01;100454.13;5044112;28;20033;-73
2023/03/18 11:08:33;;;;;;;;;;;;;;;13.26;52.15;100533.38;5050100;28;20029;-71
2023/03/18 11:11:33;;;;;;;7.68;3.17;;;;;;;13.81;52.21;100520.56;5050358;28;19912;-70
2023/03/18 11:14:01;;;;;;;4.47;2.78;;;;;;;13.13;51.84;100536.34;5050354;28;20037;-71
2023/03/18 11:16:48;;;;;;;5.40;3.30;;;;;;;14.02;51.12;100585.50;5050468;28;20091;-71
2023/03/18 11:19:24;;;;;;;7.47;4.50;;;;;;;13.47;52.75;100553.16;4380720;28;10001030;-70
2023/03/18 11:22:14;;;;;;;4.50;3.50;;;;;;;14.19;53.40;100585.78;5085815;28;20040;-70
2023/03/18 11:24:44;;;;;;;6.75;3.15;;;;;;;13.83;51.61;100609.97;5090689;28;20510;-71